createdAt,value
2022-09-05T00:00:11.938Z,2.55
2022-09-05T00:02:55.955Z,2.75
2022-09-05T00:06:00.059Z,2.88
2022-09-05T00:08:34.315Z,2.75
2022-09-05T00:11:40.551Z,2.95
2022-09-05T00:14:53.749Z,2.90
2022-09-05T00:17:42.397Z,3.00
2022-09-05T00:24:25.897Z,2.63
2022-09-05T00:24:27.421Z,2.80
2022-09-05T00:26:54.739Z,2.95
2022-09-05T00:29:49.170Z,2.70
2022-09-05T00:32:41.250Z,3.10
2022-09-05T00:35:35.331Z,2.83
2022-09-05T00:38:36.585Z,2.75
2022-09-05T00:41:13.273Z,2.83
2022-09-05T00:43:51.876Z,3.00
2022-09-05T00:46:34.010Z,2.80
2022-09-05T00:49:21.487Z,2.67
2022-09-05T00:51:50.899Z,2.78
2022-09-05T00:54:41.866Z,2.70
2022-09-05T00:57:21.083Z,2.65
2022-09-05T00:59:59.349Z,2.83
2022-09-05T01:02:51.644Z,3.08
2022-09-05T01:05:38.125Z,2.85
2022-09-05T01:08:25.540Z,2.90
2022-09-05T01:10:55.168Z,2.95
2022-09-05T01:13:45.325Z,2.80
2022-09-05T01:16:24.228Z,2.83
2022-09-05T01:18:59.635Z,2.67
2022-09-05T01:21:48.181Z,3.15
2022-09-05T01:24:28.001Z,2.90
2022-09-05T01:27:16.241Z,2.92
2022-09-05T01:29:55.630Z,3.00
2022-09-05T01:32:46.061Z,2.63
2022-09-05T01:35:29.297Z,2.85
2022-09-05T01:38:09.744Z,2.92
2022-09-05T01:41:17.913Z,3.13
2022-09-05T01:44:13.637Z,2.60
2022-09-05T01:46:51.868Z,2.88
2022-09-05T01:49:35.404Z,3.00
2022-09-05T01:52:25.790Z,2.75
2022-09-05T01:55:10.199Z,2.90
2022-09-05T01:57:53.746Z,2.80
2022-09-05T02:00:50.817Z,2.75
2022-09-05T02:08:39.133Z,2.60
2022-09-05T02:11:39.099Z,3.03
2022-09-05T02:14:34.060Z,2.80
2022-09-05T02:17:27.394Z,2.78
2022-09-05T02:20:24.009Z,2.70
2022-09-05T02:23:26.081Z,2.90
2022-09-05T02:26:03.710Z,2.70
2022-09-05T02:28:46.236Z,2.90
2022-09-05T02:31:38.773Z,2.90
2022-09-05T02:34:19.039Z,2.70
2022-09-05T02:36:57.812Z,2.80
2022-09-05T02:45:01.286Z,2.75
2022-09-05T02:45:20.773Z,2.75
2022-09-05T02:46:02.068Z,3.05
2022-09-05T02:48:51.519Z,2.80
2022-09-05T02:57:27.700Z,3.20
2022-09-05T02:57:33.865Z,2.80
2022-09-05T02:58:05.465Z,2.58
2022-09-05T03:01:33.015Z,2.60
2022-09-05T03:04:18.024Z,2.80
2022-09-05T03:06:58.247Z,2.60
2022-09-05T03:09:46.174Z,2.55
2022-09-05T03:12:36.971Z,2.70
2022-09-05T03:15:18.791Z,2.28
2022-09-05T03:18:21.654Z,2.63
2022-09-05T03:21:08.968Z,2.63
2022-09-05T03:24:37.697Z,2.60
2022-09-05T03:27:07.740Z,2.50
2022-09-05T03:29:59.061Z,2.40
2022-09-05T03:32:58.611Z,2.53
2022-09-05T03:35:44.491Z,2.42
2022-09-05T03:38:50.381Z,2.38
2022-09-05T03:42:03.561Z,2.40
2022-09-05T03:45:00.904Z,2.30
2022-09-05T03:53:22.470Z,2.08
2022-09-05T03:57:25.091Z,2.60
2022-09-05T03:57:25.425Z,2.28
2022-09-05T04:07:51.805Z,2.03
2022-09-05T04:08:28.022Z,2.30
2022-09-05T04:08:46.451Z,2.40
2022-09-05T04:11:50.461Z,2.38
2022-09-05T04:14:27.360Z,2.40
2022-09-05T04:17:08.563Z,2.72
2022-09-05T04:23:28.073Z,2.28
2022-09-05T04:29:15.688Z,2.30
2022-09-05T04:32:07.473Z,2.13
2022-09-05T04:35:22.418Z,2.40
2022-09-05T04:37:55.777Z,2.33
2022-09-05T04:40:36.230Z,2.70
2022-09-05T04:43:19.394Z,2.38
2022-09-05T04:46:20.136Z,2.63
2022-09-05T04:48:53.978Z,2.50
2022-09-05T04:51:30.235Z,2.58
2022-09-05T04:54:32.083Z,2.55
2022-09-05T04:57:14.143Z,2.47
2022-09-05T05:06:01.008Z,2.38
2022-09-05T05:06:09.092Z,2.50
2022-09-05T05:06:43.921Z,2.50
2022-09-05T05:09:19.981Z,2.50
2022-09-05T05:17:56.010Z,2.53
2022-09-05T05:18:07.943Z,2.33
2022-09-05T05:19:03.033Z,2.50
2022-09-05T05:21:47.376Z,2.40
2022-09-05T05:24:57.470Z,2.38
2022-09-05T05:27:38.459Z,2.50
2022-09-05T05:30:39.869Z,2.45
2022-09-05T05:33:34.532Z,2.30
2022-09-05T05:36:09.897Z,2.33
2022-09-05T05:39:06.674Z,2.53
2022-09-05T05:42:20.358Z,2.25
2022-09-05T05:51:07.443Z,2.47
2022-09-05T05:53:52.531Z,2.40
2022-09-05T05:56:34.386Z,2.45
2022-09-05T05:59:29.908Z,2.50
2022-09-05T06:02:10.901Z,2.60
2022-09-05T06:05:51.291Z,2.55
2022-09-05T06:11:54.330Z,2.45
2022-09-05T06:15:03.644Z,2.40
2022-09-05T06:15:12.147Z,2.60
2022-09-05T06:18:02.828Z,2.38
2022-09-05T06:22:05.834Z,2.50
2022-09-05T06:24:06.657Z,2.42
2022-09-05T06:26:35.922Z,2.47
2022-09-05T06:29:20.554Z,2.20
2022-09-05T06:32:03.735Z,2.40
2022-09-05T06:34:38.198Z,2.50
2022-09-05T06:37:13.751Z,2.35
2022-09-05T06:40:19.926Z,2.28
2022-09-05T06:43:08.406Z,2.33
2022-09-05T06:46:39.257Z,2.72
2022-09-05T06:49:38.759Z,2.30
2022-09-05T06:52:33.892Z,2.47
2022-09-05T06:55:26.424Z,2.45
2022-09-05T06:58:28.269Z,2.30
2022-09-05T07:01:09.682Z,2.35
2022-09-05T07:03:58.372Z,2.28
2022-09-05T07:07:27.558Z,2.42
2022-09-05T07:10:39.622Z,2.47
2022-09-05T07:14:15.012Z,2.17
2022-09-05T07:17:28.493Z,2.35
2022-09-05T07:20:00.089Z,2.40
2022-09-05T07:22:47.464Z,2.20
2022-09-05T07:25:37.297Z,2.33
2022-09-05T07:28:30.181Z,2.40
2022-09-05T07:34:26.243Z,2.22
2022-09-05T07:37:14.083Z,2.22
2022-09-05T07:40:24.586Z,2.30
2022-09-05T07:43:09.569Z,2.33
2022-09-05T07:45:55.966Z,2.40
2022-09-05T07:48:35.259Z,2.35
2022-09-05T07:56:49.196Z,2.80
2022-09-05T07:56:59.015Z,2.47
2022-09-05T07:57:30.265Z,2.30
2022-09-05T08:00:26.466Z,2.35
2022-09-05T08:03:22.991Z,2.28
2022-09-05T08:07:14.285Z,2.35
2022-09-05T08:10:05.919Z,2.20
2022-09-05T08:13:22.489Z,2.17
2022-09-05T08:16:10.551Z,2.25
2022-09-05T08:18:51.843Z,2.38
2022-09-05T08:24:00.662Z,2.20
2022-09-05T08:26:39.412Z,2.60
2022-09-05T08:29:21.717Z,2.35
2022-09-05T08:31:54.802Z,2.50
2022-09-05T08:34:31.475Z,2.47
2022-09-05T08:37:15.182Z,2.58
2022-09-05T08:40:10.074Z,2.55
2022-09-05T08:43:44.335Z,2.42
2022-09-05T08:46:46.295Z,2.40
2022-09-05T08:49:37.023Z,2.30
2022-09-05T08:52:36.073Z,2.35
2022-09-05T08:55:31.279Z,2.50
2022-09-05T08:58:03.200Z,2.38
2022-09-05T09:00:40.680Z,2.45
2022-09-05T09:03:31.964Z,2.25
2022-09-05T09:06:16.119Z,2.33
2022-09-05T09:08:54.642Z,2.20
2022-09-05T09:11:39.498Z,2.40
2022-09-05T09:14:30.360Z,2.40
2022-09-05T09:17:19.336Z,2.35
2022-09-05T09:19:51.986Z,2.53
2022-09-05T09:22:39.402Z,2.60
2022-09-05T09:25:20.098Z,2.53
2022-09-05T09:28:49.701Z,2.50
2022-09-05T09:31:34.184Z,2.30
2022-09-05T09:34:07.550Z,2.30
2022-09-05T09:36:38.796Z,2.25
2022-09-05T09:39:38.204Z,2.50
2022-09-05T09:42:05.784Z,2.28
2022-09-05T09:44:50.831Z,2.28
2022-09-05T09:47:31.710Z,2.38
2022-09-05T09:50:19.958Z,2.20
2022-09-05T09:52:58.153Z,2.47
2022-09-05T09:55:43.088Z,2.30
2022-09-05T09:58:18.937Z,2.45
2022-09-05T10:00:52.037Z,2.30
2022-09-05T10:06:00.302Z,2.60
2022-09-05T10:11:08.802Z,2.20
2022-09-05T10:11:09.341Z,2.25
2022-09-05T10:12:30.683Z,2.30
2022-09-05T10:15:30.816Z,2.55
2022-09-05T10:18:15.501Z,2.33
2022-09-05T10:20:50.930Z,2.10
2022-09-05T10:23:53.316Z,2.40
2022-09-05T10:26:43.641Z,2.22
2022-09-05T10:29:34.971Z,2.22
2022-09-05T10:35:10.779Z,2.33
2022-09-05T10:35:24.655Z,2.30
2022-09-05T10:38:10.771Z,2.72
2022-09-05T10:41:20.717Z,2.70
2022-09-05T10:43:55.065Z,2.50
2022-09-05T10:46:50.330Z,2.50
2022-09-05T10:49:32.207Z,2.33
2022-09-05T10:52:19.401Z,2.20
2022-09-05T10:55:14.758Z,2.25
2022-09-05T10:57:59.784Z,2.45
2022-09-05T11:02:20.026Z,2.20
2022-09-05T11:04:07.500Z,2.20
2022-09-05T11:06:46.808Z,2.28
2022-09-05T11:09:16.644Z,2.50
2022-09-05T11:11:47.745Z,2.42
2022-09-05T11:14:27.080Z,2.40
2022-09-05T11:17:03.690Z,2.28
2022-09-05T11:19:50.617Z,2.35
2022-09-05T11:22:24.440Z,2.38
2022-09-05T11:25:40.381Z,2.40
2022-09-05T11:28:20.872Z,2.20
2022-09-05T11:30:54.478Z,2.20
2022-09-05T11:39:59.806Z,2.20
2022-09-05T11:40:04.116Z,2.20
2022-09-05T11:40:06.455Z,2.35
2022-09-05T11:45:22.557Z,1.90
2022-09-05T11:48:16.343Z,2.20
2022-09-05T11:50:56.656Z,2.28
2022-09-05T11:53:38.621Z,2.47
2022-09-05T11:56:34.121Z,2.30
2022-09-05T11:59:40.318Z,2.20
2022-09-05T12:02:28.571Z,2.30
2022-09-05T12:05:49.773Z,2.40
2022-09-05T12:08:08.118Z,2.30
2022-09-05T12:16:56.088Z,2.20
2022-09-05T12:19:55.928Z,2.10
2022-09-05T12:22:31.506Z,2.20
2022-09-05T12:25:27.405Z,2.22
2022-09-05T12:29:27.514Z,1.90
2022-09-05T12:32:50.424Z,2.28
2022-09-05T12:36:06.283Z,1.90
2022-09-05T12:40:55.751Z,2.25
2022-09-05T12:41:37.435Z,2.20
2022-09-05T12:41:41.113Z,2.30
2022-09-05T12:44:36.304Z,2.50
2022-09-05T12:46:01.365Z,2.20
2022-09-05T12:48:39.826Z,2.10
2022-09-05T12:51:10.653Z,2.38
2022-09-05T12:53:48.148Z,2.20
2022-09-05T12:59:30.054Z,2.58
2022-09-05T13:03:04.167Z,2.33
2022-09-05T13:03:08.335Z,2.33
2022-09-05T13:05:18.241Z,2.40
2022-09-05T13:07:51.521Z,2.20
2022-09-05T13:14:50.139Z,2.30
2022-09-05T13:14:53.613Z,2.28
2022-09-05T13:16:22.848Z,2.08
2022-09-05T13:18:56.191Z,2.20
2022-09-05T13:21:27.672Z,2.42
2022-09-05T13:24:01.785Z,2.20
2022-09-05T13:26:43.998Z,2.15
2022-09-05T13:29:23.345Z,2.25
2022-09-05T13:37:57.972Z,1.92
2022-09-05T13:38:01.345Z,2.33
2022-09-05T13:38:09.899Z,2.42
2022-09-05T13:40:48.067Z,2.20
2022-09-05T13:43:27.979Z,2.25
2022-09-05T13:46:20.547Z,2.25
2022-09-05T13:49:25.736Z,2.30
2022-09-05T13:52:29.726Z,2.30
2022-09-05T13:55:12.614Z,2.17
2022-09-05T13:57:47.238Z,2.38
2022-09-05T14:00:27.565Z,2.25
2022-09-05T14:03:38.987Z,2.20
2022-09-05T14:06:45.296Z,2.22
2022-09-05T14:09:36.819Z,2.40
2022-09-05T14:12:17.716Z,2.10
2022-09-05T14:17:52.629Z,2.25
2022-09-05T14:20:49.484Z,2.33
2022-09-05T14:23:22.070Z,2.50
2022-09-05T14:25:54.239Z,2.38
2022-09-05T14:28:27.384Z,2.25
2022-09-05T14:35:33.279Z,2.50
2022-09-05T14:37:54.948Z,2.47
2022-09-05T14:38:00.924Z,2.53
2022-09-05T14:39:59.556Z,2.30
2022-09-05T14:42:46.189Z,2.28
2022-09-05T14:45:25.472Z,2.45
2022-09-05T14:48:57.766Z,2.40
2022-09-05T14:51:47.616Z,2.13
2022-09-05T14:55:22.969Z,2.42
2022-09-05T15:02:50.649Z,2.38
2022-09-05T15:03:00.210Z,2.60
2022-09-05T15:05:11.139Z,2.28
2022-09-05T15:08:22.703Z,2.53
2022-09-05T15:12:17.768Z,2.30
2022-09-05T15:14:07.970Z,2.50
2022-09-05T15:16:46.885Z,2.40
2022-09-05T15:19:39.353Z,2.80
2022-09-05T15:22:31.355Z,2.50
2022-09-05T15:25:20.233Z,2.53
2022-09-05T15:27:54.707Z,2.60
2022-09-05T15:30:34.887Z,2.70
2022-09-05T15:33:14.092Z,2.58
2022-09-05T15:35:51.586Z,2.60
2022-09-05T15:38:26.820Z,2.67
2022-09-05T15:41:04.821Z,2.50
2022-09-05T15:43:36.370Z,2.38
2022-09-05T15:46:08.027Z,2.53
2022-09-05T15:48:40.429Z,2.42
2022-09-05T15:51:33.853Z,2.40
2022-09-05T15:55:16.195Z,2.60
2022-09-05T15:57:55.519Z,2.67
2022-09-05T16:00:48.143Z,2.35
2022-09-05T16:06:56.580Z,2.58
2022-09-05T16:10:31.737Z,2.47
2022-09-05T16:10:35.969Z,2.45
2022-09-05T16:12:28.790Z,2.53
2022-09-05T16:16:14.314Z,2.50
2022-09-05T16:23:24.301Z,2.30
2022-09-05T16:23:28.520Z,2.50
2022-09-05T16:23:50.300Z,2.53
2022-09-05T16:26:27.933Z,2.50
2022-09-05T16:29:06.838Z,2.33
2022-09-05T16:31:54.638Z,2.70
2022-09-05T16:34:48.256Z,2.50
2022-09-05T16:37:22.711Z,2.67
2022-09-05T16:40:15.483Z,2.40
2022-09-05T16:42:50.054Z,2.40
2022-09-05T16:45:22.968Z,2.60
2022-09-05T16:47:59.278Z,2.70
2022-09-05T16:50:50.366Z,2.90
2022-09-05T16:53:58.251Z,2.72
2022-09-05T16:56:44.577Z,2.45
2022-09-05T16:59:19.324Z,2.65
2022-09-05T17:01:54.880Z,2.45
2022-09-05T17:04:45.059Z,2.88
2022-09-05T17:07:42.404Z,2.47
2022-09-05T17:10:22.220Z,2.70
2022-09-05T17:12:56.149Z,2.78
2022-09-05T17:15:51.489Z,2.78
2022-09-05T17:18:31.304Z,2.60
2022-09-05T17:21:10.563Z,2.50
2022-09-05T17:29:15.419Z,2.47
2022-09-05T17:29:32.594Z,2.42
2022-09-05T17:32:51.149Z,2.58
2022-09-05T17:35:44.293Z,2.70
2022-09-05T17:38:34.119Z,2.67
2022-09-05T17:41:03.643Z,2.42
2022-09-05T17:43:40.167Z,2.70
2022-09-05T17:46:15.828Z,2.70
2022-09-05T17:48:57.279Z,2.55
2022-09-05T17:51:36.536Z,2.60
2022-09-05T17:54:09.812Z,2.80
2022-09-05T17:56:44.205Z,2.60
2022-09-05T17:59:14.414Z,2.42
2022-09-05T18:02:03.957Z,2.30
2022-09-05T18:04:47.731Z,2.38
2022-09-05T18:07:31.111Z,2.15
2022-09-05T18:13:13.457Z,2.30
2022-09-05T18:15:54.613Z,2.40
2022-09-05T18:19:27.731Z,2.40
2022-09-05T18:21:46.469Z,2.30
2022-09-05T18:24:40.840Z,2.53
2022-09-05T18:28:03.763Z,2.53
2022-09-05T18:30:22.294Z,2.15
2022-09-05T18:33:29.082Z,2.30
2022-09-05T18:35:48.008Z,2.17
2022-09-05T18:38:33.084Z,2.35
2022-09-05T18:41:14.136Z,2.17
2022-09-05T18:44:12.111Z,2.30
2022-09-05T18:46:46.391Z,2.40
2022-09-05T18:50:21.592Z,2.42
2022-09-05T18:52:23.587Z,2.20
2022-09-05T18:56:10.402Z,2.30
2022-09-05T18:58:00.022Z,2.47
2022-09-05T19:00:46.960Z,2.42
2022-09-05T19:03:25.259Z,2.00
2022-09-05T19:06:36.412Z,2.17
2022-09-05T19:08:59.487Z,2.10
2022-09-05T19:11:29.878Z,2.05
2022-09-05T19:14:26.703Z,2.30
2022-09-05T19:16:52.104Z,2.30
2022-09-05T19:19:24.410Z,2.50
2022-09-05T19:22:54.128Z,2.67
2022-09-05T19:24:50.470Z,2.10
2022-09-05T19:30:31.114Z,2.13
2022-09-05T19:36:51.527Z,2.10
2022-09-05T19:36:54.504Z,2.15
2022-09-05T19:36:56.048Z,2.10
2022-09-05T19:40:12.774Z,2.15
2022-09-05T19:47:40.056Z,2.10
2022-09-05T19:47:44.909Z,2.13
2022-09-05T19:50:30.258Z,2.20
2022-09-05T19:53:09.591Z,2.05
2022-09-05T19:55:40.128Z,2.17
2022-09-05T19:58:29.278Z,2.10
2022-09-05T20:01:18.656Z,2.13
2022-09-05T20:03:52.400Z,2.25
2022-09-05T20:06:30.227Z,2.10
2022-09-05T20:09:12.054Z,2.20
2022-09-05T20:11:46.761Z,2.15
2022-09-05T20:14:24.178Z,2.20
2022-09-05T20:16:58.357Z,2.20
2022-09-05T20:22:10.136Z,1.70
2022-09-05T20:24:51.081Z,2.03
2022-09-05T20:27:26.966Z,2.10
2022-09-05T20:30:04.087Z,2.10
2022-09-05T20:32:40.528Z,2.22
2022-09-05T20:39:56.204Z,2.03
2022-09-05T20:43:24.177Z,1.95
2022-09-05T20:43:35.396Z,2.20
2022-09-05T20:44:26.481Z,2.10
2022-09-05T20:50:30.707Z,2.28
2022-09-05T20:54:05.982Z,2.00
2022-09-05T20:54:20.956Z,2.08
2022-09-05T20:56:56.344Z,2.00
2022-09-05T20:59:47.639Z,2.00
2022-09-05T21:02:20.862Z,2.00
2022-09-05T21:05:20.151Z,2.30
2022-09-05T21:08:07.530Z,2.00
2022-09-05T21:10:55.882Z,1.92
2022-09-05T21:13:51.922Z,2.20
2022-09-05T21:16:30.169Z,2.17
2022-09-05T21:21:33.683Z,1.95
2022-09-05T21:24:17.432Z,1.90
2022-09-05T21:26:50.088Z,2.00
2022-09-05T21:29:33.407Z,2.17
2022-09-05T21:32:10.570Z,2.17
2022-09-05T21:34:55.552Z,1.98
2022-09-05T21:37:28.036Z,2.30
2022-09-05T21:40:01.151Z,2.13
2022-09-05T21:43:40.855Z,2.15
2022-09-05T21:47:42.893Z,2.20
2022-09-05T21:48:28.411Z,2.10
2022-09-05T21:51:02.431Z,2.33
2022-09-05T21:56:31.804Z,2.05
2022-09-05T21:59:26.995Z,2.15
2022-09-05T21:59:36.601Z,2.20
2022-09-05T22:02:09.810Z,2.20
2022-09-05T22:04:40.991Z,2.15
2022-09-05T22:07:32.386Z,2.47
2022-09-05T22:10:04.841Z,2.30
2022-09-05T22:12:39.504Z,2.70
2022-09-05T22:15:28.329Z,2.15
2022-09-05T22:18:17.336Z,2.47
2022-09-05T22:21:02.623Z,2.40
2022-09-05T22:23:38.792Z,2.45
2022-09-05T22:26:07.668Z,2.58
2022-09-05T22:28:40.062Z,2.80
2022-09-05T22:33:40.698Z,2.65
2022-09-05T22:36:16.291Z,2.25
2022-09-05T22:38:46.740Z,2.30
2022-09-05T22:41:18.572Z,2.67
2022-09-05T22:43:59.477Z,2.63
2022-09-05T22:46:27.862Z,2.50
2022-09-05T22:48:58.404Z,2.50
2022-09-05T22:51:27.561Z,2.60
2022-09-05T22:53:56.402Z,2.40
2022-09-05T22:56:34.282Z,2.45
2022-09-05T22:59:03.863Z,2.53
2022-09-05T23:01:32.149Z,2.70
2022-09-05T23:04:02.672Z,2.60
2022-09-05T23:06:31.520Z,2.65
2022-09-05T23:09:00.418Z,2.53
2022-09-05T23:11:31.077Z,2.33
2022-09-05T23:13:59.917Z,2.50
2022-09-05T23:16:29.205Z,2.45
2022-09-05T23:18:59.974Z,2.70
2022-09-05T23:21:28.326Z,2.50
2022-09-05T23:23:58.108Z,2.45
2022-09-05T23:26:26.229Z,2.30
2022-09-05T23:28:54.969Z,2.35
2022-09-05T23:31:24.601Z,2.45
2022-09-05T23:33:59.371Z,2.33
2022-09-05T23:36:28.004Z,2.40
2022-09-05T23:38:58.210Z,2.30
2022-09-05T23:41:27.644Z,2.40
2022-09-05T23:43:57.798Z,2.40
2022-09-05T23:46:27.649Z,2.30
2022-09-05T23:48:56.634Z,2.40
2022-09-05T23:51:25.897Z,2.10
2022-09-05T23:53:54.532Z,2.40
2022-09-05T23:56:23.559Z,2.50
2022-09-05T23:58:52.471Z,2.42
